createdAt,value
2023-03-12T00:00:12.604Z,40.75
2023-03-12T00:02:43.121Z,49.75
2023-03-12T00:05:13.616Z,45.50
2023-03-12T00:07:44.142Z,29.50
2023-03-12T00:10:15.461Z,24.25
2023-03-12T00:12:46.497Z,21.25
2023-03-12T00:15:17.438Z,24.75
2023-03-12T00:17:48.486Z,26.00
2023-03-12T00:20:19.310Z,28.75
2023-03-12T00:22:50.485Z,30.00
2023-03-12T00:25:21.491Z,30.50
2023-03-12T00:27:52.484Z,31.00
2023-03-12T00:30:23.534Z,24.75
2023-03-12T00:32:54.532Z,26.00
2023-03-12T00:35:25.393Z,25.00
2023-03-12T00:37:55.970Z,26.75
2023-03-12T00:40:26.487Z,23.00
2023-03-12T00:42:56.743Z,25.00
2023-03-12T00:45:27.175Z,23.75
2023-03-12T00:47:57.481Z,25.50
2023-03-12T00:50:27.971Z,24.25
2023-03-12T00:52:58.323Z,21.75
2023-03-12T00:55:28.647Z,12.50
2023-03-12T00:57:59.093Z,13.25
2023-03-12T01:00:29.492Z,11.50
2023-03-12T01:02:59.994Z,10.75
2023-03-12T01:05:31.870Z,14.75
2023-03-12T01:08:04.786Z,13.00
2023-03-12T01:10:36.612Z,11.50
2023-03-12T01:13:07.605Z,9.00
2023-03-12T01:15:38.114Z,5.75
2023-03-12T01:18:08.592Z,8.00
2023-03-12T01:20:39.834Z,9.75
2023-03-12T01:23:10.418Z,7.00
2023-03-12T01:25:41.925Z,3.50
2023-03-12T01:28:12.321Z,3.00
2023-03-12T01:30:42.660Z,3.25
2023-03-12T01:33:13.499Z,1.00
2023-03-12T01:35:43.895Z,2.50
2023-03-12T01:38:16.247Z,4.50
2023-03-12T01:40:46.640Z,4.00
2023-03-12T01:43:29.702Z,5.00
2023-03-12T01:46:03.153Z,4.25
2023-03-12T01:48:42.740Z,4.00
2023-03-12T01:51:15.551Z,4.50
2023-03-12T01:53:49.128Z,5.00
2023-03-12T01:56:21.065Z,5.00
2023-03-12T01:59:12.208Z,5.00
2023-03-12T02:01:43.467Z,7.00
2023-03-12T02:04:15.767Z,4.25
2023-03-12T02:07:07.262Z,6.50
2023-03-12T02:12:19.528Z,8.50
2023-03-12T02:14:49.946Z,7.00
2023-03-12T02:17:20.667Z,4.25
2023-03-12T02:20:08.969Z,7.25
2023-03-12T02:22:42.636Z,8.00
2023-03-12T02:25:24.685Z,8.00
2023-03-12T02:27:55.778Z,7.50
2023-03-12T02:30:29.346Z,7.75
2023-03-12T02:33:05.432Z,7.75
2023-03-12T02:35:37.225Z,6.00
2023-03-12T02:38:25.413Z,5.50
2023-03-12T02:40:58.681Z,8.00
2023-03-12T02:43:30.052Z,9.25
2023-03-12T02:46:01.036Z,10.25
2023-03-12T02:48:31.815Z,10.00
2023-03-12T02:51:02.355Z,10.00
2023-03-12T02:53:33.142Z,6.50
2023-03-12T02:56:03.961Z,9.50
2023-03-12T02:58:34.971Z,9.50
2023-03-12T03:01:05.957Z,9.00
2023-03-12T03:03:37.323Z,8.75
2023-03-12T03:06:08.025Z,9.25
2023-03-12T03:08:38.645Z,10.00
2023-03-12T03:11:09.831Z,4.50
2023-03-12T03:13:40.451Z,3.25
2023-03-12T03:16:11.233Z,8.00
2023-03-12T03:18:42.217Z,7.00
2023-03-12T03:21:13.931Z,7.25
2023-03-12T03:23:47.275Z,9.25
2023-03-12T03:26:20.573Z,8.00
2023-03-12T03:28:51.642Z,5.50
2023-03-12T03:31:22.724Z,9.25
2023-03-12T03:33:53.292Z,8.50
2023-03-12T03:36:23.748Z,3.00
2023-03-12T03:38:54.904Z,7.75
2023-03-12T03:41:25.873Z,9.00
2023-03-12T03:43:58.132Z,5.25
2023-03-12T03:46:28.494Z,7.50
2023-03-12T03:48:58.765Z,7.75
2023-03-12T03:51:30.561Z,6.25
2023-03-12T03:54:01.629Z,7.25
2023-03-12T03:56:32.396Z,7.75
2023-03-12T03:59:24.055Z,6.00
2023-03-12T04:01:54.685Z,4.50
2023-03-12T04:04:25.154Z,6.50
2023-03-12T04:06:57.254Z,9.75
2023-03-12T04:09:27.830Z,8.50
2023-03-12T04:11:59.594Z,9.50
2023-03-12T04:14:30.472Z,9.50
2023-03-12T04:17:01.433Z,9.00
2023-03-12T04:19:32.070Z,9.00
2023-03-12T04:22:03.302Z,8.50
2023-03-12T04:24:33.861Z,7.50
2023-03-12T04:27:04.312Z,7.00
2023-03-12T04:29:35.837Z,9.00
2023-03-12T04:32:06.994Z,5.50
2023-03-12T04:34:37.445Z,8.00
2023-03-12T04:37:08.235Z,5.00
2023-03-12T04:39:38.740Z,10.50
2023-03-12T04:42:09.496Z,6.50
2023-03-12T04:44:41.139Z,10.00
2023-03-12T04:47:12.354Z,9.00
2023-03-12T04:49:43.108Z,9.00
2023-03-12T04:52:13.474Z,7.75
2023-03-12T04:54:47.458Z,11.00
2023-03-12T04:57:16.843Z,7.00
2023-03-12T04:59:47.365Z,8.75
2023-03-12T05:02:18.616Z,11.00
2023-03-12T05:04:49.124Z,9.00
2023-03-12T05:07:19.652Z,10.50
2023-03-12T05:09:50.878Z,8.50
2023-03-12T05:12:21.647Z,11.00
2023-03-12T05:14:52.567Z,8.00
2023-03-12T05:17:23.083Z,3.00
2023-03-12T05:19:54.489Z,11.25
2023-03-12T05:22:25.046Z,5.75
2023-03-12T05:24:55.925Z,8.00
2023-03-12T05:27:26.352Z,6.25
2023-03-12T05:29:57.036Z,12.00
2023-03-12T05:32:27.459Z,26.25
2023-03-12T05:34:58.833Z,8.75
2023-03-12T05:37:29.320Z,9.50
2023-03-12T05:39:59.942Z,16.00
2023-03-12T05:42:30.424Z,12.00
2023-03-12T05:45:03.741Z,12.25
2023-03-12T05:47:35.217Z,6.00
2023-03-12T05:50:06.206Z,12.50
2023-03-12T05:52:37.764Z,7.50
2023-03-12T05:55:09.426Z,4.50
2023-03-12T05:57:40.897Z,6.25
2023-03-12T06:00:14.585Z,5.75
2023-03-12T06:02:46.187Z,6.75
2023-03-12T06:05:16.660Z,3.00
2023-03-12T06:07:47.954Z,6.00
2023-03-12T06:10:18.640Z,6.00
2023-03-12T06:12:49.328Z,5.25
2023-03-12T06:15:20.548Z,7.50
2023-03-12T06:17:51.764Z,8.50
2023-03-12T06:20:22.859Z,3.50
2023-03-12T06:22:54.160Z,3.00
2023-03-12T06:25:25.103Z,6.25
2023-03-12T06:27:56.446Z,17.00
2023-03-12T06:30:27.400Z,21.00
2023-03-12T06:32:58.030Z,30.00
2023-03-12T06:35:28.692Z,30.25
2023-03-12T06:38:00.110Z,21.00
2023-03-12T06:40:31.289Z,12.25
2023-03-12T06:43:02.568Z,17.75
2023-03-12T06:45:33.355Z,27.00
2023-03-12T06:48:04.917Z,28.75
2023-03-12T06:50:35.843Z,14.25
2023-03-12T06:53:06.941Z,9.50
2023-03-12T06:55:38.163Z,6.50
2023-03-12T06:58:08.745Z,5.00
2023-03-12T07:00:39.287Z,0.75
2023-03-12T07:03:10.024Z,1.00
2023-03-12T07:05:40.490Z,0.00
2023-03-12T07:08:11.863Z,1.00
2023-03-12T07:10:44.048Z,2.00
2023-03-12T07:13:15.578Z,1.00
2023-03-12T07:15:46.938Z,1.00
2023-03-12T07:18:18.603Z,20.75
2023-03-12T07:20:50.672Z,27.75
2023-03-12T07:23:25.422Z,26.25
2023-03-12T07:25:56.222Z,25.00
2023-03-12T07:28:26.781Z,13.25
2023-03-12T07:31:14.021Z,17.00
2023-03-12T07:33:45.468Z,16.00
2023-03-12T07:36:17.995Z,12.25
2023-03-12T07:38:49.771Z,3.25
2023-03-12T07:41:20.996Z,1.25
2023-03-12T07:43:52.458Z,19.25
2023-03-12T07:46:24.349Z,15.75
2023-03-12T07:48:55.477Z,2.00
2023-03-12T07:51:26.390Z,16.25
2023-03-12T07:53:59.282Z,15.75
2023-03-12T07:56:30.377Z,9.50
2023-03-12T07:59:01.521Z,9.00
2023-03-12T08:01:34.706Z,4.00
2023-03-12T08:04:05.904Z,18.25
2023-03-12T08:06:36.537Z,36.00
2023-03-12T08:09:07.760Z,35.00
2023-03-12T08:11:38.598Z,16.75
2023-03-12T08:14:10.120Z,43.75
2023-03-12T08:16:41.152Z,20.00
2023-03-12T08:19:12.271Z,17.25
2023-03-12T08:21:44.058Z,12.50
2023-03-12T08:24:15.102Z,0.50
2023-03-12T08:26:45.693Z,1.00
2023-03-12T08:29:17.674Z,1.00
2023-03-12T08:32:03.674Z,1.00
2023-03-12T08:34:21.117Z,1.00
2023-03-12T08:36:51.728Z,1.00
2023-03-12T08:39:23.263Z,1.25
2023-03-12T08:41:54.867Z,0.50
2023-03-12T08:44:29.971Z,0.50
2023-03-12T08:47:00.302Z,1.00
2023-03-12T08:49:31.107Z,1.00
2023-03-12T08:52:02.505Z,1.25
2023-03-12T08:54:36.355Z,1.00
2023-03-12T08:57:07.077Z,1.75
2023-03-12T08:59:38.870Z,1.00
2023-03-12T09:02:17.582Z,2.25
2023-03-12T09:04:51.732Z,1.00
2023-03-12T09:07:22.284Z,0.00
2023-03-12T09:09:54.308Z,1.00
2023-03-12T09:12:25.218Z,1.00
2023-03-12T09:15:03.573Z,0.50
2023-03-12T09:17:30.009Z,2.25
2023-03-12T09:20:01.874Z,3.00
2023-03-12T09:22:32.860Z,5.75
2023-03-12T09:25:05.036Z,14.00
2023-03-12T09:27:58.854Z,21.00
2023-03-12T09:30:29.562Z,15.00
2023-03-12T09:33:01.130Z,1.25
2023-03-12T09:35:32.346Z,1.50
2023-03-12T09:38:03.937Z,0.25
2023-03-12T09:40:38.020Z,1.25
2023-03-12T09:43:17.219Z,1.25
2023-03-12T09:46:08.408Z,1.00
2023-03-12T09:48:40.729Z,1.75
2023-03-12T09:54:02.512Z,0.00
2023-03-12T09:56:35.217Z,1.75
2023-03-12T09:59:08.976Z,1.50
2023-03-12T10:01:46.319Z,0.00
2023-03-12T10:04:39.934Z,1.00
2023-03-12T10:07:25.844Z,2.00
2023-03-12T10:10:16.334Z,0.25
2023-03-12T10:12:52.869Z,1.00
2023-03-12T10:15:57.876Z,1.00
2023-03-12T10:18:48.368Z,0.75
2023-03-12T10:24:14.732Z,1.00
2023-03-12T10:26:48.923Z,1.25
2023-03-12T10:29:24.860Z,45.50
2023-03-12T10:32:13.063Z,21.25
2023-03-12T10:35:06.099Z,50.50
2023-03-12T10:37:40.197Z,31.50
2023-03-12T10:40:17.410Z,35.75
2023-03-12T10:42:48.138Z,14.25
2023-03-12T10:45:24.599Z,36.75
2023-03-12T10:48:15.799Z,17.50
2023-03-12T10:50:50.458Z,1.00
2023-03-12T10:53:29.931Z,1.00
2023-03-12T10:56:15.301Z,37.75
2023-03-12T10:58:49.100Z,35.50
2023-03-12T11:01:28.654Z,58.00
2023-03-12T11:04:16.927Z,40.25
2023-03-12T11:07:06.621Z,1.25
2023-03-12T11:09:38.321Z,0.00
2023-03-12T11:12:30.608Z,0.50
2023-03-12T11:15:02.718Z,0.00
2023-03-12T11:17:33.613Z,1.00
2023-03-12T11:20:19.842Z,1.00
2023-03-12T11:22:51.658Z,0.50
2023-03-12T11:25:24.985Z,1.00
2023-03-12T11:27:58.366Z,0.00
2023-03-12T11:30:31.884Z,1.00
2023-03-12T11:33:03.399Z,1.00
2023-03-12T11:35:53.223Z,0.00
2023-03-12T11:38:26.586Z,0.00
2023-03-12T11:44:01.108Z,1.00
2023-03-12T11:46:46.581Z,1.50
2023-03-12T11:49:28.390Z,1.75
2023-03-12T11:52:13.095Z,3.75
2023-03-12T11:55:15.011Z,4.50
2023-03-12T11:58:15.884Z,2.00
2023-03-12T12:01:04.667Z,0.25
2023-03-12T12:04:01.347Z,1.00
2023-03-12T12:06:51.492Z,0.00
2023-03-12T12:09:37.111Z,0.25
2023-03-12T12:12:23.304Z,1.00
2023-03-12T12:15:17.113Z,25.00
2023-03-12T12:17:56.916Z,54.80
2023-03-12T12:20:35.816Z,34.25
2023-03-12T12:23:18.902Z,9.75
2023-03-12T12:26:06.322Z,1.25
2023-03-12T12:29:04.547Z,1.00
2023-03-12T12:31:47.198Z,0.75
2023-03-12T12:37:37.512Z,1.00
2023-03-12T12:40:22.885Z,1.00
2023-03-12T12:43:26.032Z,0.00
2023-03-12T12:46:13.336Z,0.00
2023-03-12T12:49:01.702Z,1.00
2023-03-12T12:51:39.377Z,1.00
2023-03-12T12:54:32.887Z,0.00
2023-03-12T12:57:18.640Z,0.50
2023-03-12T13:03:07.001Z,0.25
2023-03-12T13:05:40.349Z,0.00
2023-03-12T13:08:13.780Z,0.75
2023-03-12T13:10:53.367Z,1.00
2023-03-12T13:13:31.435Z,0.00
2023-03-12T13:16:33.316Z,0.75
2023-03-12T13:19:10.550Z,1.00
2023-03-12T13:21:53.408Z,0.75
2023-03-12T13:24:26.741Z,1.50
2023-03-12T13:27:34.825Z,1.00
2023-03-12T13:30:34.658Z,51.25
2023-03-12T13:33:09.006Z,3.00
2023-03-12T13:35:40.439Z,0.00
2023-03-12T13:38:23.255Z,0.00
2023-03-12T13:40:57.470Z,0.75
2023-03-12T13:43:37.777Z,1.00
2023-03-12T13:46:17.260Z,2.00
2023-03-12T13:48:50.603Z,1.00
2023-03-12T13:51:24.476Z,0.75
2023-03-12T13:53:58.217Z,1.00
2023-03-12T13:56:38.676Z,1.00
2023-03-12T14:02:08.459Z,1.00
2023-03-12T14:04:42.110Z,1.00
2023-03-12T14:07:31.509Z,0.00
2023-03-12T14:10:25.636Z,0.00
2023-03-12T14:12:58.935Z,0.00
2023-03-12T14:15:45.067Z,0.00
2023-03-12T14:18:24.749Z,34.80
2023-03-12T14:21:00.161Z,83.60
2023-03-12T14:23:41.748Z,141.25
2023-03-12T14:26:33.210Z,144.60
2023-03-12T14:29:06.622Z,154.40
2023-03-12T14:31:38.667Z,147.20
2023-03-12T14:34:39.445Z,125.40
2023-03-12T14:41:33.944Z,150.60
2023-03-12T14:44:07.334Z,152.00
2023-03-12T14:46:39.896Z,123.40
2023-03-12T14:49:12.526Z,127.80
2023-03-12T14:51:44.946Z,97.00
2023-03-12T14:54:21.692Z,114.20
2023-03-12T14:56:53.044Z,96.80
2023-03-12T14:59:47.284Z,136.00
2023-03-12T15:02:20.367Z,124.20
2023-03-12T15:04:55.390Z,115.20
2023-03-12T15:07:31.782Z,133.40
2023-03-12T15:10:05.787Z,137.00
2023-03-12T15:12:38.360Z,139.80
2023-03-12T15:15:11.999Z,150.40
2023-03-12T15:17:43.210Z,133.00
2023-03-12T15:20:16.410Z,129.00
2023-03-12T15:22:47.306Z,101.40
2023-03-12T15:25:33.011Z,43.40
2023-03-12T15:31:14.274Z,1.25
2023-03-12T15:33:45.547Z,1.25
2023-03-12T15:36:19.116Z,1.00
2023-03-12T15:38:53.922Z,1.00
2023-03-12T15:41:47.532Z,2.00
2023-03-12T15:44:24.087Z,1.50
2023-03-12T15:52:37.018Z,1.25
2023-03-12T15:55:16.559Z,1.25
2023-03-12T15:57:50.977Z,2.25
2023-03-12T16:00:33.703Z,2.00
2023-03-12T16:03:05.497Z,1.00
2023-03-12T16:05:39.584Z,2.00
2023-03-12T16:08:24.809Z,1.25
2023-03-12T16:10:55.745Z,1.75
2023-03-12T16:13:31.869Z,1.00
2023-03-12T16:16:02.569Z,2.00
2023-03-12T16:18:35.543Z,2.00
2023-03-12T16:21:12.114Z,2.00
2023-03-12T16:23:48.426Z,3.50
2023-03-12T16:26:19.238Z,3.00
2023-03-12T16:28:49.977Z,1.50
2023-03-12T16:31:20.644Z,1.25
2023-03-12T16:33:53.170Z,2.00
2023-03-12T16:36:35.173Z,2.25
2023-03-12T16:39:06.391Z,2.25
2023-03-12T16:41:38.760Z,0.75
2023-03-12T16:44:12.777Z,1.00
2023-03-12T16:46:47.138Z,2.50
2023-03-12T16:49:18.480Z,2.00
2023-03-12T16:51:48.842Z,3.00
2023-03-12T16:54:19.432Z,2.50
2023-03-12T16:56:50.072Z,0.00
2023-03-12T16:59:28.270Z,2.00
2023-03-12T17:01:59.067Z,3.00
2023-03-12T17:04:29.996Z,2.25
2023-03-12T17:07:00.370Z,1.75
2023-03-12T17:09:30.746Z,1.00
2023-03-12T17:12:03.031Z,2.50
2023-03-12T17:14:33.841Z,2.00
2023-03-12T17:17:04.947Z,1.50
2023-03-12T17:19:35.431Z,3.00
2023-03-12T17:22:08.330Z,1.75
2023-03-12T17:24:39.404Z,2.50
2023-03-12T17:27:16.129Z,2.50
2023-03-12T17:29:49.710Z,3.75
2023-03-12T17:32:37.958Z,3.50
2023-03-12T17:35:09.871Z,5.00
2023-03-12T17:37:41.754Z,3.50
2023-03-12T17:40:14.525Z,2.00
2023-03-12T17:42:45.757Z,3.00
2023-03-12T17:45:16.541Z,3.50
2023-03-12T17:47:47.185Z,1.75
2023-03-12T17:50:18.945Z,3.00
2023-03-12T17:52:49.289Z,3.00
2023-03-12T17:55:20.491Z,2.00
2023-03-12T17:57:51.329Z,1.50
2023-03-12T18:00:23.670Z,2.50
2023-03-12T18:02:55.592Z,2.75
2023-03-12T18:05:29.250Z,2.25
2023-03-12T18:08:00.891Z,5.25
2023-03-12T18:10:31.869Z,2.00
2023-03-12T18:13:23.361Z,2.25
2023-03-12T18:16:07.348Z,3.25
2023-03-12T18:18:40.707Z,3.75
2023-03-12T18:21:12.339Z,2.75
2023-03-12T18:23:43.432Z,2.00
2023-03-12T18:26:15.258Z,7.75
2023-03-12T18:28:46.518Z,1.50
2023-03-12T18:31:19.019Z,7.75
2023-03-12T18:33:52.929Z,6.00
2023-03-12T18:36:27.178Z,6.00
2023-03-12T18:39:02.012Z,6.75
2023-03-12T18:41:36.371Z,7.25
2023-03-12T18:44:09.624Z,7.25
2023-03-12T18:46:42.089Z,7.25
2023-03-12T18:49:13.056Z,5.50
2023-03-12T18:51:45.702Z,5.25
2023-03-12T18:54:16.910Z,7.25
2023-03-12T18:56:48.182Z,6.00
2023-03-12T18:59:19.104Z,7.75
2023-03-12T19:01:49.555Z,5.75
2023-03-12T19:04:22.305Z,5.75
2023-03-12T19:06:53.084Z,4.25
2023-03-12T19:09:26.073Z,4.75
2023-03-12T19:11:57.657Z,6.00
2023-03-12T19:14:30.537Z,5.50
2023-03-12T19:17:04.530Z,6.25
2023-03-12T19:19:36.291Z,5.25
2023-03-12T19:22:07.087Z,6.00
2023-03-12T19:24:37.493Z,5.25
2023-03-12T19:27:09.165Z,7.00
2023-03-12T19:29:40.519Z,4.75
2023-03-12T19:32:12.444Z,5.50
2023-03-12T19:34:43.804Z,1.00
2023-03-12T19:37:15.573Z,3.50
2023-03-12T19:39:46.254Z,5.00
2023-03-12T19:42:17.995Z,5.75
2023-03-12T19:44:48.843Z,5.75
2023-03-12T19:47:20.721Z,7.75
2023-03-12T19:49:51.244Z,5.50
2023-03-12T19:52:23.058Z,5.25
2023-03-12T19:55:03.821Z,6.50
2023-03-12T19:57:27.903Z,4.50
2023-03-12T19:59:59.011Z,5.50
2023-03-12T20:02:30.216Z,6.75
2023-03-12T20:05:01.355Z,6.50
2023-03-12T20:07:32.555Z,5.00
2023-03-12T20:10:05.978Z,8.50
2023-03-12T20:12:38.993Z,4.50
2023-03-12T20:15:09.906Z,6.00
2023-03-12T20:17:41.680Z,9.25
2023-03-12T20:20:14.148Z,11.50
2023-03-12T20:22:46.836Z,7.00
2023-03-12T20:25:20.918Z,6.00
2023-03-12T20:27:52.414Z,9.00
2023-03-12T20:30:23.938Z,5.00
2023-03-12T20:32:55.652Z,7.75
2023-03-12T20:35:26.172Z,5.25
2023-03-12T20:37:58.551Z,9.25
2023-03-12T20:40:29.500Z,9.00
2023-03-12T20:43:00.430Z,8.50
2023-03-12T20:45:32.338Z,8.50
2023-03-12T20:48:02.954Z,8.50
2023-03-12T20:50:35.575Z,8.50
2023-03-12T20:53:07.098Z,8.75
2023-03-12T20:55:41.954Z,7.00
2023-03-12T20:58:12.653Z,6.50
2023-03-12T21:00:43.764Z,9.50
2023-03-12T21:03:15.969Z,8.00
2023-03-12T21:05:55.575Z,5.00
2023-03-12T21:08:27.367Z,5.00
2023-03-12T21:10:57.985Z,4.50
2023-03-12T21:13:29.177Z,5.00
2023-03-12T21:15:59.946Z,5.75
2023-03-12T21:18:30.624Z,11.50
2023-03-12T21:21:06.888Z,4.75
2023-03-12T21:23:40.718Z,5.00
2023-03-12T21:26:12.703Z,8.50
2023-03-12T21:28:44.418Z,6.50
2023-03-12T21:31:36.121Z,3.50
2023-03-12T21:34:09.741Z,4.25
2023-03-12T21:36:39.808Z,4.75
2023-03-12T21:39:11.684Z,4.50
2023-03-12T21:41:43.765Z,4.75
2023-03-12T21:44:16.604Z,5.00
2023-03-12T21:46:47.130Z,5.50
2023-03-12T21:49:18.011Z,5.25
2023-03-12T21:51:48.959Z,5.00
2023-03-12T21:54:21.445Z,5.50
2023-03-12T21:56:52.612Z,4.50
2023-03-12T21:59:23.158Z,8.25
2023-03-12T22:01:54.081Z,6.00
2023-03-12T22:04:24.978Z,4.00
2023-03-12T22:06:55.333Z,4.50
2023-03-12T22:09:26.344Z,5.00
2023-03-12T22:11:57.993Z,5.00
2023-03-12T22:14:28.539Z,6.00
2023-03-12T22:16:59.383Z,5.75
2023-03-12T22:19:29.962Z,5.75
2023-03-12T22:22:01.206Z,8.25
2023-03-12T22:24:32.314Z,5.00
2023-03-12T22:27:02.912Z,5.75
2023-03-12T22:29:38.489Z,5.75
2023-03-12T22:32:17.706Z,5.50
2023-03-12T22:34:49.802Z,4.00
2023-03-12T22:37:21.167Z,4.00
2023-03-12T22:39:52.243Z,6.00
2023-03-12T22:42:25.168Z,5.00
2023-03-12T22:44:56.409Z,2.50
2023-03-12T22:47:26.816Z,4.00
2023-03-12T22:50:00.517Z,5.75
2023-03-12T22:52:31.011Z,5.00
2023-03-12T22:55:01.960Z,5.75
2023-03-12T22:57:40.686Z,5.75
2023-03-12T23:00:17.209Z,6.50
2023-03-12T23:02:47.823Z,5.75
2023-03-12T23:05:18.914Z,8.25
2023-03-12T23:07:49.740Z,5.50
2023-03-12T23:10:20.332Z,5.00
2023-03-12T23:12:51.091Z,5.25
2023-03-12T23:15:24.574Z,5.25
2023-03-12T23:17:54.385Z,4.50
2023-03-12T23:20:25.361Z,6.50
2023-03-12T23:22:55.758Z,4.00
2023-03-12T23:25:29.215Z,5.75
2023-03-12T23:27:59.764Z,2.50
2023-03-12T23:30:30.092Z,5.00
2023-03-12T23:33:01.527Z,5.00
2023-03-12T23:35:32.178Z,5.00
2023-03-12T23:38:05.240Z,6.00
2023-03-12T23:40:35.745Z,5.00
2023-03-12T23:43:07.853Z,5.50
2023-03-12T23:45:38.499Z,5.00
2023-03-12T23:48:08.910Z,6.00
2023-03-12T23:50:39.302Z,5.25
2023-03-12T23:53:09.692Z,9.00
2023-03-12T23:55:40.513Z,5.50
2023-03-12T23:58:10.931Z,5.75
